Weather observations for the past three days for
Augusta Daniel Field
Metric (Imperial)
Date Time (edt) Wind (kph) Vis. (km) Weather Sky Cond. Temperature (ºC) Relative Humidity Wind Chill (°C) Heat Index (°C) Pressure Precipitation (cm)
Air Dwpt 6 hour altimeter (cm) sea level (mb) 1 hr 3 hr 6 hr
Max. Min.
06 06:53 SE 7 16.09 Fair CLR 14.4 12.8 90% 76.1 1014.2
06 05:53 SE 11 16.09 Fair CLR 14.4 12.8 90% 76.1 1014.0
06 04:53 SE 9 16.09 A Few Clouds FEW070 15 12.8 87% 76.12 1014.5
06 03:53 SE 7 16.09 Fair CLR 16.1 12.8 81% 76.15 1014.8
06 02:53 SE 7 16.09 Fair CLR 16.7 12.8 78% 76.15 1014.7
06 01:53 SE 9 16.09 Fair CLR 17.8 12.8 25.6 17.8 73% 76.15 1014.9
06 00:53 S 13 16.09 Fair CLR 18.9 12.8 68% 76.2 1015.3
05 23:53 SE 13 16.09 Fair CLR 19.4 12.8 66% 76.2 1015.3
05 22:53 S 17 16.09 Fair CLR 20.6 13.3 63% 76.17 1015.2
05 21:53 SE 15 16.09 Fair CLR 21.7 12.8 57% 76.15 1014.8
05 20:53 S 6 16.09 Fair CLR 24.4 9.4 39% 25 76.1 1014.0
05 19:53 S 9 16.09 Fair CLR 26.1 8.9 27.8 25.6 34% 26 76.05 1013.5
05 18:53 S 15 16.09 Fair CLR 27.2 8.9 32% 27 76.07 1013.8
05 17:53 S 7 16.09 Fair CLR 27.2 8.9 32% 27 76.07 1013.7
05 16:53 S 17 G 33 16.09 Fair CLR 27.8 8.9 31% 27 76.1 1013.9
05 15:53 S 13 16.09 Mostly Cloudy BKN075 27.2 8.9 32% 27 76.15 1014.7
05 14:53 S 11 16.09 Mostly Cloudy BKN070 26.1 8.9 34% 26 76.23 1015.6
05 13:53 S 17 G 37 16.09 Partly Cloudy SCT070 26.7 9.4 26.7 14.4 34% 26 76.28 1016.5
05 12:53 Vrbl 11 G 26 16.09 Partly Cloudy SCT055 SCT070 25 11.7 43% 26 76.28 1016.6
05 11:53 S 15 16.09 Fair CLR 23.9 12.2 48% 25 76.33 1017.0
05 10:53 SW 11 16.09 Fair CLR 22.8 13.3 55% 76.35 1017.3
05 09:53 S 17 16.09 Fair CLR 20.6 12.8 61% 76.33 1017.2
05 08:53 S 9 16.09 Fair CLR 17.8 12.2 70% 76.33 1017.2
05 07:53 SE 7 16.09 Fair CLR 14.4 11.1 16.7 13.3 81% 76.3 1016.8
05 06:53 SE 9 16.09 Fair CLR 13.3 10.6 84% 76.25 1016.3
05 05:53 S 9 16.09 Fair CLR 14.4 10.6 78% 76.25 1016.0
05 04:53 S 6 16.09 Fair CLR 15 10.6 75% 76.25 1016.1
05 03:53 Vrbl 7 16.09 Fair CLR 15.6 10 70% 76.23 1015.8
05 02:53 S 7 16.09 Fair CLR 15.6 10 70% 76.2 1015.6
05 01:53 S 6 16.09 Fair CLR 16.1 9.4 23.3 16.1 65% 76.25 1016.0
05 00:53 S 7 16.09 Fair CLR 17.2 9.4 60% 76.25 1016.3
04 23:53 S 7 16.09 Fair CLR 17.8 9.4 58% 76.28 1016.4
04 22:53 SE 9 16.09 Fair CLR 18.9 9.4 54% 76.28 1016.5
04 21:53 SE 11 16.09 Fair CLR 20.6 7.2 42% 76.23 1015.9
04 20:53 S 6 16.09 Fair CLR 22.2 6.7 37% 76.17 1015.1
04 19:53 S 7 16.09 Fair CLR 23.3 5.6 26.1 23.3 32% 76.15 1014.8
04 18:53 S 15 16.09 Fair CLR 24.4 3.9 26% 25 76.15 1014.9
04 17:53 S 15 16.09 Fair CLR 25 4.4 26% 25 76.15 1014.9
04 16:53 SW 15 16.09 Fair CLR 26.1 4.4 25% 26 76.15 1014.8
04 15:53 S 15 16.09 Fair CLR 25.6 3.9 25% 25 76.17 1015.1
04 14:53 Vrbl 7 16.09 Fair CLR 25 3.9 26% 25 76.23 1015.9
04 13:53 Vrbl 6 16.09 Fair CLR 23.9 3.3 24.4 12.2 26% 25 76.28 1016.6
04 12:53 Calm 16.09 Fair CLR 23.3 3.9 28% 76.33 1017.3
04 11:53 Calm 16.09 Fair CLR 22.2 3.9 30% 76.38 1017.9
04 10:53 Vrbl 11 16.09 Fair CLR 21.1 3.9 32% 76.4 1018.2
04 09:53 Calm 16.09 Fair CLR 18.3 7.8 51% 76.43 1018.4
04 08:53 Calm 16.09 Fair CLR 14.4 6.7 60% 76.43 1018.6
04 07:53 Calm 16.09 Fair CLR 12.2 6.7 13.9 10 69% 76.4 1018.5
04 06:53 Calm 16.09 Fair CLR 10 8.3 89% 76.38 1017.9
04 05:53 Calm 16.09 Fair CLR 11.1 6.7 75% 76.35 1017.8
04 04:53 Calm 16.09 Fair CLR 10.6 6.7 77% 76.35 1017.8
04 02:53 SE 7 16.09 Fair CLR 12.2 6.1 67% 76.35 1017.6
04 01:53 Calm 16.09 Fair CLR 13.9 4.4 20.6 13.9 53% 76.4 1018.2
04 00:53 Calm 16.09 Fair CLR 15.6 3.3 44% 76.38 1018.0
03 23:53 Calm 16.09 Fair CLR 15.6 3.9 46% 76.38 1017.9
03 22:53 Calm 16.09 Fair CLR 17.2 3.3 40% 76.38 1017.9
03 21:53 Calm 16.09 Fair CLR 18.3 2.2 34% 76.35 1017.5
03 20:53 Calm 16.09 Fair CLR 19.4 3.3 35% 76.28 1016.7
03 19:53 Calm 16.09 Fair CLR 20.6 2.2 22.8 19.4 30% 76.25 1016.4
03 18:53 Calm 16.09 Fair CLR 21.7 2.8 29% 76.25 1016.4
03 17:53 Vrbl 7 16.09 Fair CLR 22.8 3.3 28% 76.28 1016.6
03 16:53 Calm 16.09 Fair CLR 22.2 4.4 31% 76.28 1016.7
03 15:53 Vrbl 6 16.09 Fair CLR 20.6 3.9 33% 76.35 1017.5
03 14:53 Vrbl 6 16.09 Fair CLR 20.6 3.9 33% 76.43 1018.6
03 13:53 Vrbl 11 16.09 Fair CLR 19.4 2.8 20.6 9.4 33% 76.5 1019.5
03 12:53 Calm 16.09 A Few Clouds FEW060 18.9 2.8 34% 76.53 1019.9
03 11:53 W 6 16.09 Fair CLR 17.8 5.6 45% 76.58 1020.5
03 10:53 Vrbl 6 16.09 Fair CLR 15.6 7.2 58% 76.56 1020.5
03 09:53 NE 11 16.09 Fair CLR 13.3 7.8 70% 76.56 1020.5
03 08:53 N 9 8.05 Fog/Mist OVC002 11.1 11.1 100% 76.53 1020.1
03 07:53 N 7 1.21 Fog/Mist VV002 9.4 9.4 11.7 8.3 100% 9 76.48 1019.5
Date Time (edt) Wind (kph) Vis. (km) Weather Sky Cond. Air Dwpt Max. Min. Relative Humidity Wind Chill (°C) Heat Index (°C) altimeter (cm) sea level (mb) 1 hr 3 hr 6 hr
6 hour
Temperature (ºC) Pressure Precipitation (cm)